Time;durP1;ratioP1;P1;durP2;ratioP2;P2;SDS_P1;SDS_P2;PMS_P1;PMS_P2;Temp;Humidity;BMP_temperature;BMP_pressure;BME280_temperature;BME280_humidity;BME280_pressure;Samples;Min_cycle;Max_cycle;Signal;HPM_P1;HPM_P2
2022/12/27 00:01:40;;;;;;;;;14.75;12.50;;;;;9.56;63.36;102341.03;5098969;27;45962;-59
2022/12/27 00:04:05;;;;;;;;;13.50;11.25;;;;;9.50;63.35;102330.38;5098625;27;45425;-59
2022/12/27 00:06:30;;;;;;;;;11.00;11.00;;;;;9.49;63.75;102339.28;5099055;27;45386;-59
2022/12/27 00:08:57;;;;;;;;;14.00;11.00;;;;;9.55;63.36;102333.03;5098685;27;45365;-59
2022/12/27 00:11:28;;;;;;;;;9.25;9.25;;;;;9.59;63.73;102350.81;5098901;27;46160;-59
2022/12/27 00:13:54;;;;;;;;;10.75;10.50;;;;;9.59;63.74;102354.38;5102279;27;45713;-59
2022/12/27 00:16:20;;;;;;;;;11.50;10.25;;;;;9.53;63.52;102342.84;5102519;27;45434;-59
2022/12/27 00:18:47;;;;;;;;;9.00;9.00;;;;;9.59;63.01;102359.69;5102026;27;45307;-59
2022/12/27 00:21:13;;;;;;;;;12.50;10.75;;;;;9.50;63.55;102342.84;5102155;27;45919;-59
2022/12/27 00:23:42;;;;;;;;;16.25;12.50;;;;;9.53;63.47;102353.50;5083506;27;45355;-59
2022/12/27 00:26:15;;;;;;;;;9.25;8.50;;;;;9.42;63.83;102345.50;5102340;27;45313;-59
2022/12/27 00:28:41;;;;;;;;;14.00;10.75;;;;;9.42;63.51;102361.50;5101960;27;45373;-59
2022/12/27 00:31:06;;;;;;;;;14.50;13.00;;;;;9.36;64.12;102364.19;5101963;27;45411;-59
2022/12/27 00:33:35;;;;;;;;;10.00;10.00;;;;;9.16;64.15;102348.22;5117294;27;45451;-59
2022/12/27 00:36:03;;;;;;;;;16.25;12.00;;;;;9.25;64.33;102365.09;5104320;27;45438;-59
2022/12/27 00:38:30;;;;;;;;;13.50;10.25;;;;;9.25;64.22;102373.09;5103820;27;45563;-59
2022/12/27 00:40:55;;;;;;;;;13.75;12.25;;;;;9.19;64.17;102350.91;5104006;27;46906;-59
2022/12/27 00:43:21;;;;;;;;;17.50;13.75;;;;;9.30;64.26;102373.06;5103837;27;45389;-59
2022/12/27 00:45:46;;;;;;;;;15.00;12.50;;;;;9.28;64.23;102370.41;5103994;27;45405;-59
2022/12/27 00:48:11;;;;;;;;;9.75;9.00;;;;;9.32;64.55;102373.06;5121992;27;45480;-59
2022/12/27 00:50:41;;;;;;;;;16.25;13.50;;;;;9.32;64.42;102367.75;5122470;27;45314;-59
2022/12/27 00:53:07;;;;;;;;;14.00;10.75;;;;;9.33;64.58;102370.41;5122097;27;45605;-59
2022/12/27 00:55:33;;;;;;;;;14.00;11.00;;;;;9.24;64.68;102355.31;5103985;27;45411;-59
2022/12/27 00:57:58;;;;;;;;;11.25;11.25;;;;;9.33;64.21;102370.41;5094243;27;45256;-59
2022/12/27 01:00:23;;;;;;;;;14.00;13.00;;;;;9.07;64.36;102333.13;5103267;27;46983;-59
2022/12/27 01:02:49;;;;;;;;;8.75;8.75;;;;;9.21;64.31;102365.09;5121702;27;45420;-59
2022/12/27 01:05:14;;;;;;;;;9.50;8.50;;;;;9.23;64.55;102376.63;5122440;27;45785;-59
2022/12/27 01:07:40;;;;;;;;;10.50;10.50;;;;;9.12;64.42;102360.66;5121865;27;45366;-59
2022/12/27 01:10:05;;;;;;;;;8.00;7.00;;;;;9.20;64.52;102374.84;5103402;27;47311;-59
2022/12/27 01:12:31;;;;;;;;;13.75;12.75;;;;;9.21;64.48;102381.97;5121844;27;45428;-59
2022/12/27 01:14:56;;;;;;;;;10.00;10.00;;;;;9.19;64.31;102385.53;5122194;27;45302;-59
2022/12/27 01:17:22;;;;;;;;;12.50;9.50;;;;;9.16;64.63;102382.88;5121649;27;45311;-59
2022/12/27 01:19:47;;;;;;;;;9.00;8.50;;;;;9.14;64.86;102389.94;5121919;27;46263;-59
2022/12/27 01:22:12;;;;;;;;;10.50;9.00;;;;;9.14;64.79;102381.94;5121720;27;45301;-59
2022/12/27 01:24:37;;;;;;;;;6.50;6.50;;;;;9.13;64.43;102382.84;5121060;27;45428;-59
2022/12/27 01:27:03;;;;;;;;;9.75;8.50;;;;;9.12;64.78;102387.31;5121849;27;45659;-59
2022/12/27 01:29:28;;;;;;;;;7.75;7.75;;;;;9.08;64.56;102396.16;5121824;27;45477;-59
2022/12/27 01:31:53;;;;;;;;;9.00;8.00;;;;;9.05;64.93;102389.09;5111938;27;45299;-59
2022/12/27 01:34:19;;;;;;;;;9.00;9.00;;;;;9.04;64.82;102394.41;5100911;27;45449;-59
2022/12/27 01:36:44;;;;;;;;;9.25;8.00;;;;;9.04;65.08;102391.75;5100913;27;45469;-59
2022/12/27 01:39:11;;;;;;;;;9.00;7.75;;;;;9.04;65.23;102389.09;5100894;27;45934;-59
2022/12/27 01:44:50;;;;;;;;;9.00;7.00;;;;;9.00;65.32;102385.50;5101076;27;45374;-58
2022/12/27 01:47:48;;;;;;;;;10.00;9.00;;;;;9.02;65.05;102394.41;5100653;27;45475;-59
2022/12/27 01:50:16;;;;;;;;;11.75;8.00;;;;;9.08;64.95;102404.16;5100813;27;45408;-59
2022/12/27 01:53:04;;;;;;;;;12.75;12.25;;;;;9.07;65.33;102403.28;5100776;27;45244;-59
2022/12/27 01:55:40;;;;;;;;;6.75;6.75;;;;;9.05;65.21;102393.50;5100918;27;45393;-59
2022/12/27 01:58:44;;;;;;;;;8.00;8.00;;;;;9.13;65.36;102414.81;5100490;27;45472;-59
2022/12/27 02:01:17;;;;;;;;;9.75;8.25;;;;;9.08;65.41;102407.69;5084361;27;45476;-59
2022/12/27 02:03:49;;;;;;;;;8.50;7.00;;;;;9.13;65.42;102412.16;5100369;27;45420;-59
2022/12/27 02:06:16;;;;;;;;;10.00;9.00;;;;;9.06;65.52;102400.63;5100662;27;45271;-59
2022/12/27 02:09:14;;;;;;;;;10.25;7.25;;;;;9.04;65.57;102394.41;5100338;27;45322;-59
2022/12/27 02:11:50;;;;;;;;;8.25;6.00;;;;;9.08;65.27;102417.47;5073684;27;48369;-59
2022/12/27 02:14:20;;;;;;;;;9.50;8.00;;;;;9.10;65.55;102413.03;5100482;27;45633;-59
2022/12/27 02:16:45;;;;;;;;;7.50;5.75;;;;;9.06;65.66;102420.13;5100502;27;45402;-59
2022/12/27 02:19:30;;;;;;;;;6.00;6.00;;;;;9.06;65.69;102416.59;5100117;27;45297;-59
2022/12/27 02:22:29;;;;;;;;;9.75;7.00;;;;;9.06;65.46;102425.47;5100465;27;46586;-59
2022/12/27 02:25:19;;;;;;;;;8.50;8.00;;;;;9.08;65.87;102421.03;5100189;27;45400;-58
2022/12/27 02:27:53;;;;;;;;;8.00;5.75;;;;;9.10;65.50;102415.69;5100421;27;45340;-59
2022/12/27 02:30:19;;;;;;;;;4.00;4.00;;;;;9.08;65.45;102412.16;5100178;27;45352;-59
2022/12/27 02:32:57;;;;;;;;;9.25;7.50;;;;;9.07;65.52;102411.28;5108050;27;46077;-59
2022/12/27 02:35:32;;;;;;;;;7.75;6.75;;;;;9.05;65.35;102405.06;5120640;27;45311;-58
2022/12/27 02:38:20;;;;;;;;;7.00;3.25;;;;;9.05;65.37;102405.06;5120969;27;45525;-59
2022/12/27 02:58:58;;;;;;;;;6.25;3.75;;;;;9.22;65.44;102409.47;5087013;27;45984;-59
2022/12/27 03:05:00;;;;;;;;;4.25;4.25;;;;;9.21;65.13;102421.06;5099800;27;45442;-59
2022/12/27 03:07:45;;;;;;;;;11.75;7.25;;;;;9.17;65.59;102416.59;5081076;27;47315;-59
2022/12/27 03:16:11;;;;;;;;;6.25;6.25;;;;;9.05;65.31;102430.78;5099697;27;45525;-58
2022/12/27 03:18:54;;;;;;;;;5.50;4.00;;;;;8.99;65.69;102430.81;5099299;27;46036;-58
2022/12/27 03:27:30;;;;;;;;;6.00;6.00;;;;;8.87;65.99;102423.66;5099286;27;45484;-59
2022/12/27 03:38:45;;;;;;;;;8.50;5.00;;;;;8.89;65.80;102429.91;5119900;27;45598;-59
2022/12/27 03:44:23;;;;;;;;;7.00;6.50;;;;;8.95;66.01;102443.22;5079880;27;45556;-58
2022/12/27 03:47:09;;;;;;;;;7.00;7.00;;;;;8.92;65.96;102437.00;5120687;27;45757;-59
2022/12/27 03:49:54;;;;;;;;;10.00;7.00;;;;;8.90;65.93;102431.66;5104320;27;45414;-59
2022/12/27 03:52:30;;;;;;;;;7.00;6.25;;;;;8.85;65.76;102431.69;5123230;27;46169;-58
2022/12/27 03:54:57;;;;;;;;;6.75;6.00;;;;;8.82;66.30;102430.75;5123075;27;45675;-59
2022/12/27 03:57:25;;;;;;;;;11.50;9.50;;;;;8.80;66.00;102427.22;5100169;27;45400;-58
2022/12/27 03:59:50;;;;;;;;;11.50;11.50;;;;;8.81;66.26;102429.88;5119222;27;46162;-59
2022/12/27 04:02:15;;;;;;;;;12.25;11.75;;;;;8.78;66.15;102419.22;5122947;27;46102;-59
2022/12/27 04:04:41;;;;;;;;;13.25;12.00;;;;;8.87;66.32;102429.91;5122903;27;45281;-58
2022/12/27 04:07:06;;;;;;;;;13.75;9.00;;;;;8.89;66.01;102427.25;5123256;27;45337;-59
2022/12/27 04:36:53;;;;;;;;;12.50;9.50;;;;;8.63;66.40;102429.84;5101940;27;45315;-59
2022/12/27 04:39:18;;;;;;;;;17.00;13.25;;;;;8.57;66.62;102428.06;5101950;27;45417;-59
2022/12/27 04:55:28;;;;;;;;;10.25;9.00;;;;;8.38;67.15;102429.72;5101565;27;45353;-58
2022/12/27 04:57:55;;;;;;;;;8.00;8.00;;;;;8.37;67.37;102425.28;5100795;27;45518;-59
2022/12/27 05:03:10;;;;;;;;;12.00;9.25;;;;;8.38;67.19;102427.06;5101181;27;45396;-58
2022/12/27 05:05:37;;;;;;;;;8.00;8.00;;;;;8.38;67.56;102431.50;5101434;27;46267;-59
2022/12/27 05:16:16;;;;;;;;;7.00;7.00;;;;;8.37;67.61;102419.06;5101363;27;46054;-58
2022/12/27 05:18:42;;;;;;;;;8.00;7.00;;;;;8.38;67.49;102426.19;5101218;27;45383;-58
2022/12/27 05:21:07;;;;;;;;;9.50;8.50;;;;;8.31;67.72;102420.81;5083076;27;45340;-58
2022/12/27 05:26:22;;;;;;;;;8.50;7.50;;;;;8.24;67.70;102416.38;5101240;27;45768;-59
2022/12/27 05:28:49;;;;;;;;;6.00;5.00;;;;;8.22;67.93;102417.22;5100934;27;45394;-59
2022/12/27 05:31:15;;;;;;;;;8.75;7.75;;;;;8.17;67.87;102411.91;5101400;27;45333;-58
2022/12/27 05:33:40;;;;;;;;;7.00;7.00;;;;;8.14;67.91;102418.09;5117518;27;45421;-58
2022/12/27 05:36:06;;;;;;;;;7.25;7.00;;;;;8.20;67.96;102426.97;5121628;27;46147;-59
2022/12/27 05:38:31;;;;;;;;;8.25;6.75;;;;;8.20;68.12;102417.22;5121441;27;45294;-58
2022/12/27 05:40:58;;;;;;;;;7.75;6.25;;;;;8.23;68.15;102413.69;5121818;27;45328;-58
2022/12/27 05:43:24;;;;;;;;;7.75;7.75;;;;;8.25;68.02;102422.56;5121427;27;45436;-59
2022/12/27 05:45:49;;;;;;;;;7.75;4.00;;;;;8.27;68.21;102420.78;5121628;27;45359;-58
2022/12/27 05:48:15;;;;;;;;;7.75;6.00;;;;;8.30;67.99;102427.03;5120934;27;45620;-59
2022/12/27 05:50:40;;;;;;;;;5.00;5.00;;;;;8.22;67.90;102418.13;5102661;27;45327;-58
2022/12/27 05:53:05;;;;;;;;;7.50;7.00;;;;;8.27;67.70;102420.78;5121004;27;45405;-59
2022/12/27 05:55:30;;;;;;;;;3.00;3.00;;;;;8.30;68.06;102420.81;5121421;27;45360;-61
2022/12/27 05:57:56;;;;;;;;;7.25;6.25;;;;;8.26;68.24;102419.03;5093747;27;45356;-59
2022/12/27 06:00:21;;;;;;;;;3.75;3.75;;;;;8.21;68.72;102413.69;5121452;27;45466;-59
2022/12/27 06:02:46;;;;;;;;;6.75;6.75;;;;;8.19;68.26;102394.19;5120901;27;45309;-58
2022/12/27 06:05:12;;;;;;;;;5.00;4.00;;;;;8.28;68.28;102402.19;5121423;27;46162;-58
2022/12/27 06:07:38;;;;;;;;;6.00;4.00;;;;;8.33;68.50;102396.88;5120822;27;45483;-58
2022/12/27 06:10:05;;;;;;;;;7.00;6.75;;;;;8.37;68.30;102400.44;5121085;27;45400;-58
2022/12/27 06:12:31;;;;;;;;;5.50;5.50;;;;;8.39;68.10;102398.69;5121040;27;45478;-59
2022/12/27 06:14:56;;;;;;;;;6.00;6.00;;;;;8.38;68.46;102389.81;5121129;27;45379;-59
2022/12/27 06:17:21;;;;;;;;;6.25;5.50;;;;;8.43;68.37;102403.16;5120672;27;45277;-58
2022/12/27 06:19:47;;;;;;;;;7.25;7.00;;;;;8.48;68.04;102404.06;5121491;27;45212;-60
2022/12/27 06:22:12;;;;;;;;;8.50;6.00;;;;;8.47;68.16;102396.94;5120844;27;45314;-61
2022/12/27 06:24:37;;;;;;;;;4.50;3.50;;;;;8.50;68.03;102407.59;5120750;27;45293;-60
2022/12/27 06:27:03;;;;;;;;;2.75;1.00;;;;;8.47;68.26;102404.94;5120926;27;45303;-59
2022/12/27 06:29:28;;;;;;;;;8.75;8.25;;;;;8.56;68.02;102406.75;5120885;27;45284;-58
2022/12/27 06:31:53;;;;;;;;;12.50;9.50;;;;;8.59;67.46;102406.78;5111102;27;45406;-60
2022/12/27 06:34:19;;;;;;;;;10.25;7.00;;;;;8.53;67.70;102397.84;5099636;27;45425;-61
2022/12/27 06:36:49;;;;;;;;;9.50;7.25;;;;;8.50;67.67;102400.53;5100051;27;45461;-59
2022/12/27 06:39:15;;;;;;;;;6.00;6.00;;;;;8.51;67.66;102398.75;5081208;27;45277;-59
2022/12/27 06:41:40;;;;;;;;;11.00;7.00;;;;;8.42;67.74;102399.59;5099964;27;45336;-58
2022/12/27 06:44:05;;;;;;;;;5.75;5.75;;;;;8.40;67.64;102397.78;5099810;27;46258;-59
2022/12/27 06:46:31;;;;;;;;;11.50;8.75;;;;;8.37;67.98;102401.34;5099976;27;45311;-59
2022/12/27 06:48:56;;;;;;;;;7.00;5.50;;;;;8.39;68.14;102407.56;5099721;27;45410;-58
2022/12/27 06:51:21;;;;;;;;;8.75;6.75;;;;;8.43;68.19;102405.81;5099845;27;45302;-58
2022/12/27 06:53:48;;;;;;;;;8.25;8.00;;;;;8.38;67.92;102397.78;5099590;27;46358;-59
2022/12/27 06:56:17;;;;;;;;;7.25;7.25;;;;;8.32;67.97;102392.47;5099742;27;45328;-58
2022/12/27 06:58:43;;;;;;;;;12.00;7.00;;;;;8.34;68.14;102399.56;5099904;27;45436;-58
2022/12/27 07:01:14;;;;;;;;;10.50;9.75;;;;;8.29;68.15;102393.31;5099657;27;45461;-59
2022/12/27 07:03:40;;;;;;;;;8.25;7.75;;;;;8.28;68.25;102390.66;5099511;27;45471;-58
2022/12/27 07:06:08;;;;;;;;;7.75;4.00;;;;;8.30;68.23;102397.78;5099432;27;45371;-58
2022/12/27 07:08:35;;;;;;;;;8.25;7.00;;;;;8.30;68.23;102394.22;5099703;27;45316;-58
2022/12/27 07:11:06;;;;;;;;;7.00;6.50;;;;;8.23;68.13;102395.97;5081070;27;45598;-58
2022/12/27 07:13:39;;;;;;;;;10.50;9.00;;;;;8.21;68.32;102408.38;5099595;27;46244;-58
2022/12/27 07:16:10;;;;;;;;;9.00;6.25;;;;;8.19;68.49;102401.28;5099554;27;45621;-58
2022/12/27 07:18:36;;;;;;;;;8.00;7.00;;;;;8.19;68.57;102407.47;5099594;27;45322;-58
2022/12/27 07:21:10;;;;;;;;;7.00;6.25;;;;;8.11;68.73;102406.56;5099370;27;45369;-58
2022/12/27 07:23:36;;;;;;;;;8.25;7.25;;;;;8.19;68.55;102422.56;5102831;27;45675;-58
2022/12/27 07:26:10;;;;;;;;;3.00;2.25;;;;;8.18;68.82;102420.78;5083937;27;45674;-59
2022/12/27 07:28:36;;;;;;;;;9.00;9.00;;;;;8.15;69.09;102418.97;5103082;27;45336;-59
2022/12/27 07:31:10;;;;;;;;;9.25;6.75;;;;;8.21;68.78;102431.44;5103003;27;45352;-58
2022/12/27 07:33:37;;;;;;;;;10.25;8.00;;;;;8.26;68.71;102419.03;5117790;27;46317;-58
2022/12/27 07:36:04;;;;;;;;;10.75;7.25;;;;;8.24;68.73;102424.34;5123645;27;45256;-59
2022/12/27 07:38:29;;;;;;;;;7.50;7.00;;;;;8.31;68.92;102430.59;5123462;27;45358;-58
2022/12/27 07:40:58;;;;;;;;;9.50;7.00;;;;;8.33;68.72;102437.69;5123510;27;45380;-59
2022/12/27 07:43:24;;;;;;;;;7.00;7.00;;;;;8.31;69.11;102423.47;5123356;27;46751;-59
2022/12/27 07:45:49;;;;;;;;;9.25;7.00;;;;;8.31;68.92;102417.28;5123316;27;45325;-58
2022/12/27 07:48:15;;;;;;;;;7.75;6.75;;;;;8.35;68.37;102419.97;5123242;27;45362;-58
2022/12/27 07:50:40;;;;;;;;;8.25;6.25;;;;;8.29;68.86;102413.72;5123334;27;45600;-58
2022/12/27 07:53:05;;;;;;;;;7.25;7.25;;;;;8.35;68.60;102425.28;5122985;27;46012;-58
2022/12/27 07:55:31;;;;;;;;;12.25;9.50;;;;;8.29;68.39;102422.59;5123362;27;45274;-58
2022/12/27 07:57:56;;;;;;;;;8.75;8.00;;;;;8.24;68.51;102418.16;5095774;27;45473;-58
2022/12/27 08:00:22;;;;;;;;;8.00;7.00;;;;;8.27;68.31;102420.78;5104672;27;45490;-58
2022/12/27 08:02:47;;;;;;;;;7.75;7.75;;;;;8.30;68.62;102420.81;5122618;27;46185;-59
2022/12/27 08:05:12;;;;;;;;;8.00;7.00;;;;;8.31;68.98;102415.50;5123280;27;45339;-58
2022/12/27 08:07:40;;;;;;;;;14.00;8.75;;;;;8.33;68.38;102427.03;5122988;27;45301;-58
2022/12/27 08:10:06;;;;;;;;;7.25;6.50;;;;;8.34;68.69;102419.97;5123200;27;45812;-59
2022/12/27 08:12:31;;;;;;;;;3.75;3.75;;;;;8.32;68.58;102425.28;5122779;27;45405;-59
2022/12/27 08:14:57;;;;;;;;;11.75;8.50;;;;;8.32;68.71;102427.06;5104260;27;45702;-59
2022/12/27 08:17:26;;;;;;;;;12.25;10.00;;;;;8.29;68.65;102432.34;5122622;27;45490;-58
2022/12/27 08:19:53;;;;;;;;;10.25;4.00;;;;;8.33;68.55;102431.47;5123042;27;45313;-58
2022/12/27 08:22:20;;;;;;;;;8.00;7.50;;;;;8.27;68.67;102434.09;5122460;27;45424;-58
2022/12/27 08:24:45;;;;;;;;;8.75;6.25;;;;;8.30;68.47;102428.78;5122774;27;45403;-59
2022/12/27 08:27:11;;;;;;;;;10.00;8.00;;;;;8.29;68.66;102427.03;5122727;27;45835;-58
2022/12/27 08:29:37;;;;;;;;;8.50;6.75;;;;;8.24;68.97;102428.78;5104165;27;45544;-58
2022/12/27 08:32:04;;;;;;;;;13.50;8.25;;;;;8.27;68.67;102429.69;5111377;27;46148;-58
2022/12/27 08:34:29;;;;;;;;;6.25;6.25;;;;;8.22;68.69;102439.44;5101586;27;45275;-58
2022/12/27 08:36:54;;;;;;;;;8.00;8.00;;;;;8.17;68.83;102435.84;5083561;27;45464;-58
2022/12/27 08:39:19;;;;;;;;;8.25;7.00;;;;;8.18;68.79;102436.72;5101941;27;45327;-58
2022/12/27 08:41:45;;;;;;;;;9.50;9.50;;;;;8.18;68.95;102442.06;5101627;27;46083;-59
2022/12/27 08:44:11;;;;;;;;;8.25;7.50;;;;;8.15;69.17;102441.16;5101872;27;45329;-58
2022/12/27 08:46:37;;;;;;;;;12.00;9.00;;;;;8.15;68.88;102448.22;5101997;27;46018;-59
2022/12/27 08:49:03;;;;;;;;;7.75;7.25;;;;;8.15;69.08;102453.56;5101622;27;45373;-58
2022/12/27 08:51:29;;;;;;;;;8.25;8.25;;;;;8.08;69.17;102443.78;5083115;27;48244;-59
2022/12/27 08:53:54;;;;;;;;;8.50;6.00;;;;;8.03;69.07;102440.19;5101636;27;45492;-58
2022/12/27 08:56:19;;;;;;;;;11.25;9.00;;;;;8.03;69.05;102449.06;5101552;27;45489;-59
2022/12/27 08:58:48;;;;;;;;;13.50;8.75;;;;;8.08;69.34;102457.94;5101714;27;45562;-58
2022/12/27 09:01:13;;;;;;;;;9.00;8.00;;;;;8.13;69.46;102457.97;5101435;27;45488;-58
2022/12/27 09:03:38;;;;;;;;;10.50;8.75;;;;;8.12;69.40;102453.56;5101172;27;45414;-58
2022/12/27 09:06:14;;;;;;;;;11.00;10.00;;;;;8.18;69.20;102460.69;5101747;27;45596;-58
2022/12/27 09:08:41;;;;;;;;;16.00;8.75;;;;;8.16;69.24;102461.53;5101224;27;45321;-58
2022/12/27 09:11:28;;;;;;;;;8.50;8.00;;;;;8.20;69.29;102472.22;5101474;27;45451;-59
2022/12/27 09:13:54;;;;;;;;;8.75;8.75;;;;;8.18;68.72;102461.56;5101427;27;45754;-58
2022/12/27 09:16:22;;;;;;;;;11.75;9.00;;;;;8.21;69.12;102463.34;5101412;27;45544;-59
2022/12/27 09:18:51;;;;;;;;;9.50;8.00;;;;;8.17;68.97;102454.47;5100974;27;45464;-59
2022/12/27 09:21:18;;;;;;;;;8.25;6.50;;;;;8.25;69.24;102467.78;5101233;27;46357;-58
2022/12/27 09:23:44;;;;;;;;;12.00;11.00;;;;;8.27;69.15;102456.28;5101014;27;45661;-58
2022/12/27 09:26:31;;;;;;;;;12.00;9.00;;;;;8.28;69.26;102455.41;5101522;27;45505;-58
2022/12/27 09:28:58;;;;;;;;;17.00;11.75;;;;;8.28;69.21;102468.69;5100202;27;45497;-59
2022/12/27 09:31:24;;;;;;;;;12.75;12.00;;;;;8.32;69.15;102466.97;5082361;27;46282;-58
2022/12/27 09:33:49;;;;;;;;;13.00;12.00;;;;;8.35;69.38;102462.53;5118903;27;45365;-58
2022/12/27 09:36:17;;;;;;;;;9.00;9.00;;;;;8.35;68.87;102461.63;5121696;27;45368;-58
2022/12/27 09:38:43;;;;;;;;;9.00;7.50;;;;;8.39;68.88;102462.56;5121425;27;45310;-58
2022/12/27 09:41:45;;;;;;;;;14.75;11.75;;;;;8.34;68.89;102463.41;5121441;27;45329;-59
2022/12/27 09:44:13;;;;;;;;;11.00;10.00;;;;;8.40;69.16;102472.31;5120963;27;45236;-60
2022/12/27 09:46:59;;;;;;;;;13.00;9.25;;;;;8.40;69.06;102478.50;5121517;27;45341;-58
2022/12/27 09:49:39;;;;;;;;;13.25;9.75;;;;;8.42;69.00;102478.50;5121458;27;45338;-58
2022/12/27 09:52:16;;;;;;;;;8.75;8.75;;;;;8.44;68.85;102480.34;5121401;27;46092;-59
2022/12/27 09:54:41;;;;;;;;;11.50;10.75;;;;;8.47;68.90;102484.78;5121158;27;45301;-59
2022/12/27 09:57:23;;;;;;;;;10.67;9.67;;;;;8.44;68.87;102475.03;5102876;27;45444;-60
2022/12/27 09:59:55;;;;;;;;;10.25;8.00;;;;;8.46;69.43;102480.34;5116951;27;46012;-60
2022/12/27 10:02:23;;;;;;;;;13.50;12.25;;;;;8.47;68.71;102472.38;5120814;27;46206;-59
2022/12/27 10:04:50;;;;;;;;;13.75;12.00;;;;;8.47;69.03;102472.38;5120963;27;45409;-60
2022/12/27 10:07:31;;;;;;;;;17.00;10.25;;;;;8.50;69.31;102474.16;5121200;27;45340;-60
2022/12/27 10:10:20;;;;;;;;;11.25;10.75;;;;;8.48;68.82;102463.50;5121273;27;45487;-59
2022/12/27 10:13:06;;;;;;;;;12.75;11.50;;;;;8.55;68.91;102460.88;5120862;27;46296;-59
2022/12/27 10:15:47;;;;;;;;;14.50;14.50;;;;;8.59;69.32;102465.34;5120997;27;45257;-60
2022/12/27 10:18:47;;;;;;;;;15.00;13.00;;;;;8.63;69.16;102462.66;5101819;27;45478;-60
2022/12/27 10:21:22;;;;;;;;;10.75;9.00;;;;;8.67;69.23;102452.91;5102500;27;45345;-59
2022/12/27 10:24:01;;;;;;;;;16.00;12.25;;;;;8.63;69.20;102436.03;5120665;27;46129;-59
2022/12/27 10:26:27;;;;;;;;;7.00;4.25;;;;;8.69;68.88;102445.84;5120851;27;45734;-60
2022/12/27 10:29:21;;;;;;;;;7.00;6.75;;;;;8.70;68.53;102448.50;5120700;27;45338;-60
2022/12/27 10:31:47;;;;;;;;;9.00;9.00;;;;;8.75;68.71;102448.50;5111700;27;45362;-59
2022/12/27 10:34:15;;;;;;;;;7.00;7.00;;;;;8.77;68.58;102456.47;5099835;27;45442;-60
2022/12/27 10:36:44;;;;;;;;;12.00;10.00;;;;;8.76;68.55;102450.28;5099945;27;45735;-60
2022/12/27 10:39:24;;;;;;;;;9.75;8.50;;;;;8.76;68.27;102446.75;5100214;27;45457;-59
2022/12/27 10:42:28;;;;;;;;;15.00;9.50;;;;;8.78;68.84;102442.31;5099957;27;45309;-59
2022/12/27 10:45:24;;;;;;;;;9.50;9.00;;;;;8.84;68.90;102437.00;5076769;27;46060;-59
2022/12/27 10:47:50;;;;;;;;;12.50;8.00;;;;;8.89;68.38;102443.22;5109299;27;45766;-60
2022/12/27 10:50:17;;;;;;;;;8.25;8.00;;;;;8.91;68.56;102441.44;5102039;27;45379;-60
2022/12/27 10:52:42;;;;;;;;;13.25;11.75;;;;;8.95;68.30;102437.88;5120268;27;45269;-59
2022/12/27 10:55:37;;;;;;;;;11.75;11.50;;;;;9.04;68.10;102442.34;5120178;27;45437;-60
2022/12/27 10:58:30;;;;;;;;;11.25;9.50;;;;;9.10;67.89;102447.66;5087161;27;46314;-60
2022/12/27 11:00:56;;;;;;;;;12.25;8.75;;;;;9.14;67.90;102438.81;5101865;27;45360;-60
2022/12/27 11:03:24;;;;;;;;;8.00;8.00;;;;;9.14;68.10;102443.22;5101560;27;45337;-60
2022/12/27 11:06:04;;;;;;;;;11.00;11.00;;;;;9.23;68.35;102460.13;5120117;27;45538;-59
2022/12/27 11:08:30;;;;;;;;;12.25;10.75;;;;;9.24;67.91;102448.56;5100889;27;45619;-59
2022/12/27 11:11:17;;;;;;;;;14.00;9.00;;;;;9.32;68.10;102448.59;5120348;27;45439;-59
2022/12/27 11:13:44;;;;;;;;;10.50;10.25;;;;;9.35;67.61;102445.03;5120273;27;45332;-59
2022/12/27 11:16:17;;;;;;;;;13.50;10.00;;;;;9.38;67.62;102443.25;5119796;27;46177;-59
2022/12/27 11:18:50;;;;;;;;;8.50;8.50;;;;;9.40;67.79;102435.25;5101380;27;45800;-59
2022/12/27 11:21:16;;;;;;;;;11.75;9.50;;;;;9.42;67.47;102434.38;5120319;27;45313;-60
2022/12/27 11:23:48;;;;;;;;;10.75;9.50;;;;;9.45;67.40;102434.38;5120143;27;45259;-59
2022/12/27 11:26:29;;;;;;;;;10.00;9.00;;;;;9.48;67.35;102413.94;5118697;27;45488;-60
2022/12/27 11:29:02;;;;;;;;;10.00;10.00;;;;;9.53;67.29;102410.34;5119837;27;45668;-60
2022/12/27 11:31:38;;;;;;;;;10.25;9.00;;;;;9.59;67.30;102398.81;5095615;27;45407;-59
2022/12/27 11:34:15;;;;;;;;;9.00;9.00;;;;;9.66;66.89;102392.56;5085541;27;45315;-59
2022/12/27 11:36:44;;;;;;;;;8.75;8.50;;;;;9.67;67.19;102377.44;5099234;27;45334;-60
2022/12/27 11:39:45;;;;;;;;;7.25;7.25;;;;;9.72;66.97;102386.31;5099313;27;45587;-59
2022/12/27 11:42:37;;;;;;;;;12.00;8.00;;;;;9.73;66.53;102365.00;5099442;27;45406;-59
2022/12/27 11:45:08;;;;;;;;;7.25;5.50;;;;;9.75;66.34;102352.53;5099058;27;45310;-60
2022/12/27 11:47:57;;;;;;;;;7.00;7.00;;;;;9.75;66.11;102359.66;5098830;27;46401;-60
2022/12/27 11:50:25;;;;;;;;;6.75;3.25;;;;;9.82;66.58;102370.31;5099263;27;45607;-60
2022/12/27 11:53:00;;;;;;;;;10.00;8.50;;;;;9.87;66.20;102364.94;5080666;27;45384;-59
2022/12/27 11:56:08;;;;;;;;;7.50;5.00;;;;;9.93;66.79;102351.59;5080744;27;45596;-60
2022/12/27 11:59:08;;;;;;;;;8.00;7.00;;;;;9.98;66.65;102355.13;5086499;27;45445;-60
2022/12/27 12:01:52;;;;;;;;;5.00;5.00;;;;;10.03;66.26;102360.44;5098898;27;45404;-60
2022/12/27 12:04:20;;;;;;;;;11.00;8.00;;;;;10.08;65.99;102360.44;5098997;27;45355;-60
2022/12/27 12:07:22;;;;;;;;;11.25;8.00;;;;;10.11;66.57;102355.09;5098926;27;45607;-60
2022/12/27 12:10:06;;;;;;;;;6.75;3.00;;;;;10.14;66.13;102358.63;5102176;27;45473;-60
2022/12/27 12:12:57;;;;;;;;;4.75;3.00;;;;;10.19;65.19;102363.94;5083750;27;45322;-60
2022/12/27 12:15:40;;;;;;;;;4.00;4.00;;;;;10.24;65.51;102366.56;5102531;27;45495;-60
2022/12/27 12:18:27;;;;;;;;;5.25;2.75;;;;;10.26;65.64;102363.00;5083811;27;45393;-60
2022/12/27 12:21:30;;;;;;;;;2.50;2.50;;;;;10.28;65.57;102355.00;5102030;27;45397;-60
2022/12/27 12:24:06;;;;;;;;;2.00;2.00;;;;;10.31;65.70;102360.31;5101986;27;45576;-60
2022/12/27 12:27:03;;;;;;;;;3.25;3.25;;;;;10.34;65.36;102366.56;5102463;27;45551;-60
2022/12/27 12:29:50;;;;;;;;;2.00;2.00;;;;;10.38;64.86;102356.75;5058547;27;45432;-60
2022/12/27 12:32:54;;;;;;;;;1.00;1.00;;;;;10.42;65.13;102349.59;5106267;27;46188;-60
2022/12/27 12:35:39;;;;;;;;;3.25;2.25;;;;;10.45;64.64;102341.59;5104058;27;45324;-60
2022/12/27 12:38:19;;;;;;;;;1.75;1.75;;;;;10.43;64.92;102319.34;5122652;27;45421;-60
2022/12/27 12:41:10;;;;;;;;;2.00;1.00;;;;;10.49;64.46;102324.63;5122725;27;45373;-60
2022/12/27 12:44:02;;;;;;;;;3.00;3.00;;;;;10.57;64.65;102320.13;5122383;27;45302;-60
2022/12/27 12:46:37;;;;;;;;;1.00;1.00;;;;;10.58;63.96;102316.56;5122438;27;45391;-60
2022/12/27 12:49:33;;;;;;;;;1.50;1.00;;;;;10.61;63.78;102316.56;5122480;27;45471;-60
2022/12/27 12:52:17;;;;;;;;;3.00;2.00;;;;;10.63;63.75;102317.41;5122571;27;45491;-59
2022/12/27 12:54:45;;;;;;;;;2.00;1.00;;;;;10.65;63.17;102307.59;5122200;27;45492;-60
2022/12/27 12:57:34;;;;;;;;;1.25;1.00;;;;;10.65;63.36;102298.72;5102718;27;45310;-60
2022/12/27 13:00:08;;;;;;;;;0.75;0.75;;;;;10.68;63.73;102296.91;5121478;27;45425;-60
2022/12/27 13:03:11;;;;;;;;;2.75;1.75;;;;;10.72;63.25;102297.75;5103335;27;45462;-60
2022/12/27 13:05:54;;;;;;;;;1.00;1.00;;;;;10.72;63.02;102290.63;5122105;27;46299;-60
2022/12/27 13:08:47;;;;;;;;;3.00;2.00;;;;;10.77;62.96;102293.25;5121953;27;45633;-60
2022/12/27 13:11:36;;;;;;;;;2.25;2.25;;;;;10.77;63.19;102271.03;5122158;27;45391;-60
2022/12/27 13:14:17;;;;;;;;;2.00;2.00;;;;;10.79;63.18;102274.56;5122127;27;45324;-60
2022/12/27 13:16:58;;;;;;;;;2.00;2.00;;;;;10.84;63.17;102280.75;5121863;27;46490;-60
2022/12/27 13:20:16;;;;;;;;;1.00;1.00;;;;;10.87;62.67;102278.91;5120808;27;45625;-60
2022/12/27 13:22:58;;;;;;;;;2.00;1.00;;;;;10.83;63.34;102269.19;5022821;27;45642;-60
2022/12/27 13:25:55;;;;;;;;;3.00;1.25;;;;;10.90;62.56;102270.00;5121854;27;45321;-60
2022/12/27 13:28:31;;;;;;;;;3.75;2.00;;;;;10.92;62.90;102266.41;5121013;27;46539;-60
2022/12/27 13:31:12;;;;;;;;;4.00;2.00;;;;;10.91;62.55;102261.97;5101778;27;45405;-60
2022/12/27 13:33:50;;;;;;;;;2.75;2.00;;;;;10.94;62.85;102253.03;5100779;27;45319;-60
2022/12/27 13:36:28;;;;;;;;;1.75;1.75;;;;;11.00;62.73;102252.97;5101004;27;45547;-60